Aeroporto :
LOGIN :

Iscrizione | Disclaimer

   EN    FR    IT 

 










Sommario :    VFR   VFR Marginale   IFR   IFR Intensivo   IFR Molto Intensivo
Visibilità : 
Base nubi : 
>= 8 km
>= 3000ft
5 / 8 km
1000 / 3000 ft
1500m / 5 km
500 / 1000 ft
800 / 1500m
200 / 500 ft
< 800m
< 200 ft
Simboli :   Temporali  Nebbia  Neve Forte  Precipitazioni Forti  Vento > 20 kt
SIGMETs :   Varie  Temporali  Ghiacco  Turbolenza  Onda orograficha  Ceneri Vulcaniche







- Altitudine del aeroporto : 26 ft
- Codice IATA : SYY
- Carte del aeroporto


EGPO - Stornoway

ULTIMO METAR :
  • 192220Z AUTO 13015KT 9999 -RA BKN014/// OVC020/// 07/05 Q1001

METARs OBSOLETI :
  • 192150Z AUTO 13015KT 9999 -RA BKN019/// OVC024/// 07/05 Q1001
  • 192120Z AUTO 13016KT 9999 -RA OVC028/// 07/05 Q1002
  • 192050Z AUTO 13014KT 9999 -RA BKN030/// OVC048/// 07/05 Q1002
  • 192020Z AUTO 14017KT 9999 -RA BKN024/// OVC030/// 07/05 Q1003
  • 191950Z AUTO 15018KT 9999 -RA SCT016/// BKN022/// OVC032/// 07/05 Q1003

TAF TAF EGPO
Valido dal 19 a 21 ore il 20 a 06 ore UTC


191954Z 1921/2006 14019KT 9999 SCT010 BKN025
TEMPO 1921/2006 6000 RA BKN010
PROB30
TEMPO 1921/2003 4000 +RA BKN008
BECMG 2000/2003 20019KT
TEMPO 2000/2006 21022G32KT
PROB40
TEMPO 2003/2006 4000 RADZ BKN004
ATIS : +44 1851 707 444
Nessun NOTAM noto per questo aeroporto.



MetMap, La meteo Aeronautica in un colpo d'occhio ! - Copyright ORBIFLY Dicembre 2007 - Disclaimer

ORBIFLY MET'MAP TEAM :

Programmazione e sviluppo : Alexandra Zaïnal
Concezione e sviluppo : Baudouin d'Aumeries
Co-Programmazione e sviluppo : Marc-Olivier Méhu
Supporto tecnico e logistico : Manuel Goepfert
Aiuto per la traduzione : Arnaldo La Scala

Contatto : metmap@orbifly.com




FONTI E CREDITI :

   NOAA